{"date":"16:15","dateFormat":"m/d/y","temp":"10.4°C","tempTL":"-0.3°C","tempTH":"10.5°C","intemp":"22.7","dew":"-3.3°C","dewpointTL":"-5.1 °C","dewpointTH":"4.0 °C","apptemp":"7.7","apptempTL":"-1.9","apptempTH":"15.1","wchill":"9.8°C","wchillTL":"-1.0 °C","heatindex":"10.4°C","heatindexTH":"10.5 °C","humidex":"7.6°C","wlatest":"6.8 km/h","wspeed":"8.1 km/h","wgust":"11.8 km/h","wgustTM":"18.6 km/h","bearing":"277 °","avgbearing":"309°","press":"1028.4 hPa","pressTL":"1025.3 hPa","pressTH":"1029.0 hPa","pressL":"980.3","pressH":"1039.8","rfall":" 0.4 mm","rrate":"0.00","rrateTM":"16.3","hum":"38","humTL":"34","humTH":"94","inhum":"39","inhumTL":"23","inhumTH":"41","intempTL":"20.1","TintempTL":"05:30","intempTH":"23.1","TintempTH":"12:47","SensorContactLost":"0","forecast":"Es wird teilweise wolkig, jedoch mit wenig Temperaturänderung.","tempunit":"C","windunit":"kmh","pressunit":"hPa","rainunit":"mm","temptrend":"0.0°C/last hr","TtempTL":"02:07","TtempTH":"15:49","TdewpointTL":"13:52","TdewpointTH":"09:49","TapptempTL":"02:07","TapptempTH":"14:04","TwchillTL":"01:21","TheatindexTH":"15:49","TrrateTM":"07:54","ThourlyrainTH":"07:55","LastRainTipISO":"3/19/2019 07:54","hourlyrainTH":"0.4","ThumTL":"13:51","ThumTH":"02:26","TinhumTL":"14:08","TinhumTH":"07:43","TpressTL":"00:14","TpressTH":"12:13","presstrendval":"-0.2 hPa ","Tbeaufort":"4","TwgustTM":"13:34","windTM":"9.4 km/h","bearingTM":"5","timeUTC":"2019,03,19,15,15,10","BearingRangeFrom10":"277°","BearingRangeTo10":"99°","UV":"0.0","UVTH":"0.0","SolarRad":"345","CurrentSolarMax":"499","SolarTM":"891","domwinddir":"East northeasterly","WindRoseData":[61.0,57.0,10.0,42.0,17.0,0.0,0.0,0.0,0.0,0.0,0.0,0.0,0.0,70.0,55.0,103.0],"windrun":"12.89","cloudbasevalue":"1725","cloudbaseunit":"m","version":"10.37S","build":"93","ver":"14"} Wetterdaten
Record high temperature 35.8°C Record low temperature -23.5°C Record high gust 79.6 km/h Record high average 153.6 km/h Record daily rain 37.0 mm Record low windchill -31.0°C Record high barometer 1039.8 hPa Record low barometer 980.3 hPa
Daily high pressure 1029.0 hPa Daily low pressure 1025.3 hPa Daily low windchill -1.0°C Daily high heat index 10.5°C Daily high gust speed 18.6 kmh N Daily high average speed 9.4 kmh N
Wetterdaten
LETZTE AKTUALISIERUNG UM: 16:15 DATUM: März 19 2019, time of next update: 16:30
Aktuelles WetterClear Aktuelle Temperatur 10.4°C (50.8°F), Apparent temp 7.7°C, Apparent temp solar 11.5°C
Höchsttemperatur (seit Mitternacht)10.5°C um: 15:49 Tiefsttemperatur (seit Mitternacht)-0.3°C um: 02:07
Windgeschwindigkeit (10 Minuten )3.9 kmh (2.1 kts) Windrichtung (Dir) (10 Minuten )NNW (331°)
Windchill Temperatur 9.8°C Windspitzen (letzte Std)16.9 kmh (9.1 kts) um: 15:30
Windspitzen (seit Mitternacht)18.6 kmh (10.0 kts) um: 13:34 Höchstes Windmittel / Minute (seit Mitternacht)9.4 kmh (5.1 kts) um: 15:23
Regenmenge (letzte Std)0.0 mm Regenmenge (seit Mitternacht)0.4 mm (0.02 in.) at 07:54
Regenmenge diesen Monat 92.8 mm (3.65 in.) Regenmenge seit Jahresbeginn 167.4 mm (6.59 in.)
Höchste Regenmenge pro Minute (letzte Std)0.0 mm/min Höchste Regenmenge pro Stunde (letzte 6 Std)0.0 mm/stunde
Regenmenge Gestern 3.2 mm Taupunkt -3.3°C (Wet Bulb :5.3°C )
Luftfeuchtigkeit 38 %, Humidex 7.6°C Aktueller Luftdruck (auf Meereshöhe bezogen)1028.4 hPa
Luftdrucktendenz 0.0 hPa (letzte Std) Trend (letzte 1 Std)gleichbleibend
Luftdrucktendenz (letzte 12 Std)+2.4 hPa Luftdrucktendenz (letzte 6 Std)-0.2 hPa
Maximum Soil temperature (seit Mitternacht) 6.7°C Minimum Soil temperature(seit Mitternacht)5.0°C
Current Soil temperature 7°C
Current Solar 345 W/m²
Maximum solar (seit Mitternacht) 891 W/m² Minimum solar(seit Mitternacht)0 W/m²
Current 05:06 hours of sunshine today, current sky: bewölkt
Sunshine hours for the year: 230:39 hrs Sunshine hours for the month: 46:58 hrs
Current evapotranspiration rate 1.4 mm per day. Yesterday's reading 1.1

Diese Seite wurde mit aktuellen Daten einer DAVIS VP Wetterstation erstellt. Drücken Sie bitte auf "Aktualisieren" oder "neu laden" um die neuesten Daten zu erhalten.


Animated web cam image


Weather report/warning/Metars

Stuttgart-Echterdingen, Germany (EDDS) 48-41N 009-13E 391M
Mar 19, 2019 - 10:50 AM EDT / 2019.03.19 1450 UTC
Wind: from the N (350 degrees) at 8 MPH (7 KT) (direction variable):0
Visibility: greater than 7 mile(s):0
Temperature: 48 F (9 C)
Dew Point: 26 F (-3 C)
Relative Humidity: 42%
Pressure (altimeter): 30.33 in. Hg (1027 hPa)
ob: EDDS 191450Z 35007KT 300V030 CAVOK 09/M03 Q1027 NOSIG
cycle: 15
Augsburg, Germany (EDMA) 48-26N 010-56E 463M
Mar 19, 2019 - 10:50 AM EDT / 2019.03.19 1450 UTC
Wind: from the NNW (340 degrees) at 6 MPH (5 KT) (direction variable):0
Visibility: greater than 7 mile(s):0
Temperature: 42 F (6 C)
Dew Point: 26 F (-3 C)
Relative Humidity: 52%
Pressure (altimeter): 30.30 in. Hg (1026 hPa)
ob: EDMA 191450Z 34005KT 310V020 CAVOK 06/M03 Q1026
cycle: 15
Nuernberg, Germany (EDDN) 49-30N 011-03E 318M
Mar 19, 2019 - 10:50 AM EDT / 2019.03.19 1450 UTC
Wind: from the WNW (300 degrees) at 8 MPH (7 KT):0
Temperature: 46 F (8 C)
Dew Point: 24 F (-4 C)
Relative Humidity: 42%
Pressure (altimeter): 30.33 in. Hg (1027 hPa)
ob: EDDN 191450Z AUTO 30007KT //// R28/P2000N // ///////// 08/M04 Q1027 NOSIG
cycle: 15
Berlin-Tegel, Germany (EDDT) 52-34N 013-19E 37M
Mar 19, 2019 - 10:50 AM EDT / 2019.03.19 1450 UTC
Wind: from the WNW (290 degrees) at 12 MPH (10 KT) (direction variable):0
Visibility: greater than 7 mile(s):0
Temperature: 46 F (8 C)
Dew Point: 28 F (-2 C)
Relative Humidity: 49%
Pressure (altimeter): 30.30 in. Hg (1026 hPa)
ob: EDDT 191450Z 29010KT 260V320 CAVOK 08/M02 Q1026 NOSIG
cycle: 15
Friedrichshafen, Germany (EDNY) 47-40N 009-31E 424M
Mar 19, 2019 - 10:50 AM EDT / 2019.03.19 1450 UTC
Wind: from the WSW (240 degrees) at 5 MPH (4 KT) (direction variable):0
Visibility: greater than 7 mile(s):0
Sky conditions: partly cloudy
Temperature: 44 F (7 C)
Dew Point: 28 F (-2 C)
Relative Humidity: 52%
Pressure (altimeter): 30.33 in. Hg (1027 hPa)
ob: EDNY 191450Z 24004KT 170V300 9999 FEW045 SCT051 07/M02 Q1027
cycle: 15
Hamburg-Finkenwerder, Germany (EDHI) 53-32N 009-50E 13M
Mar 19, 2019 - 10:50 AM EDT / 2019.03.19 1450 UTC
Wind: from the WNW (300 degrees) at 14 MPH (12 KT):0
Visibility: greater than 7 mile(s):0
Sky conditions: partly cloudy
Temperature: 44 F (7 C)
Dew Point: 30 F (-1 C)
Relative Humidity: 56%
Pressure (altimeter): 30.33 in. Hg (1027 hPa)
ob: EDHI 191450Z 30012KT 9999 SCT043 07/M01 Q1027
cycle: 15

{"date":"16:15","dateFormat":"m/d/y","temp":"10.4°C","tempTL":"-0.3°C","tempTH":"10.5°C","intemp":"22.7","dew":"-3.3°C","dewpointTL":"-5.1 °C","dewpointTH":"4.0 °C","apptemp":"7.7","apptempTL":"-1.9","apptempTH":"15.1","wchill":"9.8°C","wchillTL":"-1.0 °C","heatindex":"10.4°C","heatindexTH":"10.5 °C","humidex":"7.6°C","wlatest":"6.8 km/h","wspeed":"8.1 km/h","wgust":"11.8 km/h","wgustTM":"18.6 km/h","bearing":"277 °","avgbearing":"309°","press":"1028.4 hPa","pressTL":"1025.3 hPa","pressTH":"1029.0 hPa","pressL":"980.3","pressH":"1039.8","rfall":" 0.4 mm","rrate":"0.00","rrateTM":"16.3","hum":"38","humTL":"34","humTH":"94","inhum":"39","inhumTL":"23","inhumTH":"41","intempTL":"20.1","TintempTL":"05:30","intempTH":"23.1","TintempTH":"12:47","SensorContactLost":"0","forecast":"Es wird teilweise wolkig, jedoch mit wenig Temperaturänderung.","tempunit":"C","windunit":"kmh","pressunit":"hPa","rainunit":"mm","temptrend":"0.0°C/last hr","TtempTL":"02:07","TtempTH":"15:49","TdewpointTL":"13:52","TdewpointTH":"09:49","TapptempTL":"02:07","TapptempTH":"14:04","TwchillTL":"01:21","TheatindexTH":"15:49","TrrateTM":"07:54","ThourlyrainTH":"07:55","LastRainTipISO":"3/19/2019 07:54","hourlyrainTH":"0.4","ThumTL":"13:51","ThumTH":"02:26","TinhumTL":"14:08","TinhumTH":"07:43","TpressTL":"00:14","TpressTH":"12:13","presstrendval":"-0.2 hPa ","Tbeaufort":"4","TwgustTM":"13:34","windTM":"9.4 km/h","bearingTM":"5","timeUTC":"2019,03,19,15,15,10","BearingRangeFrom10":"277°","BearingRangeTo10":"99°","UV":"0.0","UVTH":"0.0","SolarRad":"345","CurrentSolarMax":"499","SolarTM":"891","domwinddir":"East northeasterly","WindRoseData":[61.0,57.0,10.0,42.0,17.0,0.0,0.0,0.0,0.0,0.0,0.0,0.0,0.0,70.0,55.0,103.0],"windrun":"12.89","cloudbasevalue":"1725","cloudbaseunit":"m","version":"10.37S","build":"93","ver":"14"}